sensor_id;sensor_type;location;lat;lon;timestamp;temperature;humidity
9723;DHT22;4900;49.306;8.500;2023-06-10T00:00:12;21.65;52.93
9723;DHT22;4900;49.306;8.500;2023-06-10T00:02:40;21.66;52.93
9723;DHT22;4900;49.306;8.500;2023-06-10T00:05:06;21.65;53.03
9723;DHT22;4900;49.306;8.500;2023-06-10T00:07:33;21.62;52.96
9723;DHT22;4900;49.306;8.500;2023-06-10T00:09:59;21.59;53.09
9723;DHT22;4900;49.306;8.500;2023-06-10T00:12:24;21.58;53.25
9723;DHT22;4900;49.306;8.500;2023-06-10T00:14:50;21.55;53.43
9723;DHT22;4900;49.306;8.500;2023-06-10T00:17:17;21.53;53.64
9723;DHT22;4900;49.306;8.500;2023-06-10T00:19:42;21.47;53.70
9723;DHT22;4900;49.306;8.500;2023-06-10T00:22:09;21.46;53.63
9723;DHT22;4900;49.306;8.500;2023-06-10T00:24:37;21.47;53.45
9723;DHT22;4900;49.306;8.500;2023-06-10T00:27:03;21.43;53.48
9723;DHT22;4900;49.306;8.500;2023-06-10T00:29:29;21.43;53.49
9723;DHT22;4900;49.306;8.500;2023-06-10T00:31:54;21.40;53.70
9723;DHT22;4900;49.306;8.500;2023-06-10T00:34:23;21.40;53.70
9723;DHT22;4900;49.306;8.500;2023-06-10T00:36:48;21.37;53.69
9723;DHT22;4900;49.306;8.500;2023-06-10T00:39:14;21.33;53.77
9723;DHT22;4900;49.306;8.500;2023-06-10T00:41:39;21.33;53.82
9723;DHT22;4900;49.306;8.500;2023-06-10T00:44:05;21.29;54.04
9723;DHT22;4900;49.306;8.500;2023-06-10T00:46:30;21.24;54.26
9723;DHT22;4900;49.306;8.500;2023-06-10T00:48:57;21.19;54.48
9723;DHT22;4900;49.306;8.500;2023-06-10T00:51:23;21.14;54.62
9723;DHT22;4900;49.306;8.500;2023-06-10T00:53:49;21.10;54.66
9723;DHT22;4900;49.306;8.500;2023-06-10T00:56:15;21.04;54.77
9723;DHT22;4900;49.306;8.500;2023-06-10T00:58:40;21.04;54.87
9723;DHT22;4900;49.306;8.500;2023-06-10T01:01:06;20.99;54.96
9723;DHT22;4900;49.306;8.500;2023-06-10T01:03:31;20.91;55.02
9723;DHT22;4900;49.306;8.500;2023-06-10T01:14:22;20.74;55.46
9723;DHT22;4900;49.306;8.500;2023-06-10T01:16:48;20.68;55.63
9723;DHT22;4900;49.306;8.500;2023-06-10T01:19:13;20.65;55.81
9723;DHT22;4900;49.306;8.500;2023-06-10T01:21:43;20.61;55.76
9723;DHT22;4900;49.306;8.500;2023-06-10T01:24:14;20.61;55.75
9723;DHT22;4900;49.306;8.500;2023-06-10T01:26:40;20.57;55.71
9723;DHT22;4900;49.306;8.500;2023-06-10T01:29:37;20.57;55.80
9723;DHT22;4900;49.306;8.500;2023-06-10T01:32:34;20.54;55.73
9723;DHT22;4900;49.306;8.500;2023-06-10T01:35:02;20.54;55.61
9723;DHT22;4900;49.306;8.500;2023-06-10T01:37:29;20.54;55.45
9723;DHT22;4900;49.306;8.500;2023-06-10T01:39:57;20.52;55.27
9723;DHT22;4900;49.306;8.500;2023-06-10T01:42:24;20.51;55.26
9723;DHT22;4900;49.306;8.500;2023-06-10T01:44:51;20.47;55.40
9723;DHT22;4900;49.306;8.500;2023-06-10T01:47:16;20.49;55.56
9723;DHT22;4900;49.306;8.500;2023-06-10T01:49:42;20.47;55.54
9723;DHT22;4900;49.306;8.500;2023-06-10T01:52:08;20.43;55.74
9723;DHT22;4900;49.306;8.500;2023-06-10T01:54:34;20.45;56.01
9723;DHT22;4900;49.306;8.500;2023-06-10T01:57:02;20.40;56.23
9723;DHT22;4900;49.306;8.500;2023-06-10T01:59:28;20.33;56.84
9723;DHT22;4900;49.306;8.500;2023-06-10T02:01:53;20.31;56.74
9723;DHT22;4900;49.306;8.500;2023-06-10T02:04:19;20.31;56.66
9723;DHT22;4900;49.306;8.500;2023-06-10T02:06:44;20.30;56.70
9723;DHT22;4900;49.306;8.500;2023-06-10T02:09:11;20.31;56.76
9723;DHT22;4900;49.306;8.500;2023-06-10T02:11:36;20.31;56.72
9723;DHT22;4900;49.306;8.500;2023-06-10T02:14:01;20.27;56.98
9723;DHT22;4900;49.306;8.500;2023-06-10T02:16:27;20.29;56.99
9723;DHT22;4900;49.306;8.500;2023-06-10T02:18:52;20.26;57.20
9723;DHT22;4900;49.306;8.500;2023-06-10T02:21:18;20.26;57.29
9723;DHT22;4900;49.306;8.500;2023-06-10T02:23:43;20.24;57.31
9723;DHT22;4900;49.306;8.500;2023-06-10T02:26:09;20.23;57.51
9723;DHT22;4900;49.306;8.500;2023-06-10T02:28:34;20.20;57.79
9723;DHT22;4900;49.306;8.500;2023-06-10T02:30:59;20.20;57.99
9723;DHT22;4900;49.306;8.500;2023-06-10T02:33:25;20.21;58.26
9723;DHT22;4900;49.306;8.500;2023-06-10T02:35:52;20.20;58.65
9723;DHT22;4900;49.306;8.500;2023-06-10T02:38:17;20.14;58.81
9723;DHT22;4900;49.306;8.500;2023-06-10T02:40:43;20.13;58.98
9723;DHT22;4900;49.306;8.500;2023-06-10T02:43:09;20.13;58.93
9723;DHT22;4900;49.306;8.500;2023-06-10T02:45:34;20.12;59.05
9723;DHT22;4900;49.306;8.500;2023-06-10T02:48:00;20.08;59.12
9723;DHT22;4900;49.306;8.500;2023-06-10T02:50:25;20.08;59.28
9723;DHT22;4900;49.306;8.500;2023-06-10T02:52:50;20.02;59.60
9723;DHT22;4900;49.306;8.500;2023-06-10T02:55:16;20.01;59.48
9723;DHT22;4900;49.306;8.500;2023-06-10T02:57:41;20.01;59.44
9723;DHT22;4900;49.306;8.500;2023-06-10T03:00:07;19.98;59.66
9723;DHT22;4900;49.306;8.500;2023-06-10T03:02:37;19.95;59.89
9723;DHT22;4900;49.306;8.500;2023-06-10T03:05:04;19.93;60.19
9723;DHT22;4900;49.306;8.500;2023-06-10T03:07:30;19.89;60.18
9723;DHT22;4900;49.306;8.500;2023-06-10T03:09:56;19.85;60.22
9723;DHT22;4900;49.306;8.500;2023-06-10T03:12:21;19.83;60.48
9723;DHT22;4900;49.306;8.500;2023-06-10T03:14:48;19.78;60.66
9723;DHT22;4900;49.306;8.500;2023-06-10T03:17:13;19.76;60.79
9723;DHT22;4900;49.306;8.500;2023-06-10T03:19:38;19.72;60.82
9723;DHT22;4900;49.306;8.500;2023-06-10T03:22:09;19.71;61.14
9723;DHT22;4900;49.306;8.500;2023-06-10T03:24:35;19.69;61.13
9723;DHT22;4900;49.306;8.500;2023-06-10T03:27:01;19.69;61.08
9723;DHT22;4900;49.306;8.500;2023-06-10T03:29:27;19.67;61.16
9723;DHT22;4900;49.306;8.500;2023-06-10T03:31:52;19.64;61.04
9723;DHT22;4900;49.306;8.500;2023-06-10T03:34:18;19.61;61.14
9723;DHT22;4900;49.306;8.500;2023-06-10T03:36:43;19.59;61.19
9723;DHT22;4900;49.306;8.500;2023-06-10T03:39:09;19.59;61.29
9723;DHT22;4900;49.306;8.500;2023-06-10T03:41:34;19.61;61.25
9723;DHT22;4900;49.306;8.500;2023-06-10T03:44:00;19.55;61.22
9723;DHT22;4900;49.306;8.500;2023-06-10T03:46:26;19.57;61.33
9723;DHT22;4900;49.306;8.500;2023-06-10T03:48:51;19.57;61.34
9723;DHT22;4900;49.306;8.500;2023-06-10T03:51:16;19.59;61.25
9723;DHT22;4900;49.306;8.500;2023-06-10T03:53:42;19.61;61.28
9723;DHT22;4900;49.306;8.500;2023-06-10T03:56:07;19.61;61.16
9723;DHT22;4900;49.306;8.500;2023-06-10T03:58:33;19.62;61.52
9723;DHT22;4900;49.306;8.500;2023-06-10T04:00:58;19.65;61.45
9723;DHT22;4900;49.306;8.500;2023-06-10T04:03:24;19.64;61.53
9723;DHT22;4900;49.306;8.500;2023-06-10T04:05:49;19.71;61.64
9723;DHT22;4900;49.306;8.500;2023-06-10T04:08:15;19.71;61.50
9723;DHT22;4900;49.306;8.500;2023-06-10T04:10:41;19.72;61.58
9723;DHT22;4900;49.306;8.500;2023-06-10T04:13:06;19.76;61.84
9723;DHT22;4900;49.306;8.500;2023-06-10T04:15:31;19.76;62.03
9723;DHT22;4900;49.306;8.500;2023-06-10T04:18:00;19.81;61.99
9723;DHT22;4900;49.306;8.500;2023-06-10T04:20:26;19.86;61.99
9723;DHT22;4900;49.306;8.500;2023-06-10T04:22:52;19.89;61.74
9723;DHT22;4900;49.306;8.500;2023-06-10T04:25:17;19.87;61.87
9723;DHT22;4900;49.306;8.500;2023-06-10T04:27:43;19.92;61.71
9723;DHT22;4900;49.306;8.500;2023-06-10T04:30:09;19.96;61.70
9723;DHT22;4900;49.306;8.500;2023-06-10T04:32:35;19.99;61.76
9723;DHT22;4900;49.306;8.500;2023-06-10T04:35:00;20.05;61.86
9723;DHT22;4900;49.306;8.500;2023-06-10T04:37:26;20.05;61.86
9723;DHT22;4900;49.306;8.500;2023-06-10T04:39:51;20.12;62.11
9723;DHT22;4900;49.306;8.500;2023-06-10T04:42:16;20.14;62.37
9723;DHT22;4900;49.306;8.500;2023-06-10T04:44:42;20.21;62.43
9723;DHT22;4900;49.306;8.500;2023-06-10T04:47:08;20.27;62.63
9723;DHT22;4900;49.306;8.500;2023-06-10T04:49:34;20.31;62.72
9723;DHT22;4900;49.306;8.500;2023-06-10T04:52:00;20.36;62.81
9723;DHT22;4900;49.306;8.500;2023-06-10T04:54:26;20.40;63.03
9723;DHT22;4900;49.306;8.500;2023-06-10T04:56:51;20.43;63.24
9723;DHT22;4900;49.306;8.500;2023-06-10T04:59:17;20.44;63.20
9723;DHT22;4900;49.306;8.500;2023-06-10T05:01:42;20.48;63.08
9723;DHT22;4900;49.306;8.500;2023-06-10T05:04:08;20.55;63.21
9723;DHT22;4900;49.306;8.500;2023-06-10T05:06:33;20.55;63.12
9723;DHT22;4900;49.306;8.500;2023-06-10T05:09:01;20.59;63.24
9723;DHT22;4900;49.306;8.500;2023-06-10T05:11:26;20.69;63.09
9723;DHT22;4900;49.306;8.500;2023-06-10T05:13:51;20.74;62.89
9723;DHT22;4900;49.306;8.500;2023-06-10T05:16:17;20.81;62.54
9723;DHT22;4900;49.306;8.500;2023-06-10T05:18:42;20.86;62.13
9723;DHT22;4900;49.306;8.500;2023-06-10T05:21:08;20.89;61.93
9723;DHT22;4900;49.306;8.500;2023-06-10T05:23:33;20.96;61.60
9723;DHT22;4900;49.306;8.500;2023-06-10T05:25:58;21.02;61.46
9723;DHT22;4900;49.306;8.500;2023-06-10T05:28:25;21.03;61.41
9723;DHT22;4900;49.306;8.500;2023-06-10T05:30:51;21.09;61.12
9723;DHT22;4900;49.306;8.500;2023-06-10T05:33:16;21.14;60.91
9723;DHT22;4900;49.306;8.500;2023-06-10T05:35:42;21.24;60.90
9723;DHT22;4900;49.306;8.500;2023-06-10T05:38:07;21.26;60.83
9723;DHT22;4900;49.306;8.500;2023-06-10T05:40:33;21.37;60.66
9723;DHT22;4900;49.306;8.500;2023-06-10T05:42:58;21.43;60.64
9723;DHT22;4900;49.306;8.500;2023-06-10T05:45:24;21.50;60.24
9723;DHT22;4900;49.306;8.500;2023-06-10T05:47:49;21.61;59.84
9723;DHT22;4900;49.306;8.500;2023-06-10T05:50:15;21.68;59.46
9723;DHT22;4900;49.306;8.500;2023-06-10T05:52:40;21.79;59.18
9723;DHT22;4900;49.306;8.500;2023-06-10T05:55:06;21.88;58.99
9723;DHT22;4900;49.306;8.500;2023-06-10T05:57:32;22.02;58.40
9723;DHT22;4900;49.306;8.500;2023-06-10T05:59:57;22.28;57.88
9723;DHT22;4900;49.306;8.500;2023-06-10T06:02:23;22.61;57.16
9723;DHT22;4900;49.306;8.500;2023-06-10T06:04:49;23.04;56.04
9723;DHT22;4900;49.306;8.500;2023-06-10T06:07:14;23.66;54.38
9723;DHT22;4900;49.306;8.500;2023-06-10T06:09:40;24.28;52.77
9723;DHT22;4900;49.306;8.500;2023-06-10T06:12:06;24.95;51.15
9723;DHT22;4900;49.306;8.500;2023-06-10T06:14:37;25.61;49.45
9723;DHT22;4900;49.306;8.500;2023-06-10T06:17:07;26.26;48.18
9723;DHT22;4900;49.306;8.500;2023-06-10T06:19:32;26.61;47.07
9723;DHT22;4900;49.306;8.500;2023-06-10T06:21:58;27.19;46.42
9723;DHT22;4900;49.306;8.500;2023-06-10T06:24:24;27.59;45.57
9723;DHT22;4900;49.306;8.500;2023-06-10T06:26:49;28.02;44.88
9723;DHT22;4900;49.306;8.500;2023-06-10T06:29:15;28.44;44.29
9723;DHT22;4900;49.306;8.500;2023-06-10T06:31:40;28.78;43.42
9723;DHT22;4900;49.306;8.500;2023-06-10T06:34:05;29.19;42.79
9723;DHT22;4900;49.306;8.500;2023-06-10T06:36:31;29.62;41.99
9723;DHT22;4900;49.306;8.500;2023-06-10T06:38:57;29.89;41.40
9723;DHT22;4900;49.306;8.500;2023-06-10T06:41:28;30.30;40.60
9723;DHT22;4900;49.306;8.500;2023-06-10T06:43:54;30.64;40.07
9723;DHT22;4900;49.306;8.500;2023-06-10T06:46:19;31.00;39.59
9723;DHT22;4900;49.306;8.500;2023-06-10T06:48:46;31.26;39.15
9723;DHT22;4900;49.306;8.500;2023-06-10T06:51:12;31.57;38.95
9723;DHT22;4900;49.306;8.500;2023-06-10T06:53:38;31.88;38.73
9723;DHT22;4900;49.306;8.500;2023-06-10T06:56:12;32.26;38.30
9723;DHT22;4900;49.306;8.500;2023-06-10T06:58:38;32.44;37.68
9723;DHT22;4900;49.306;8.500;2023-06-10T07:01:03;32.71;37.28
9723;DHT22;4900;49.306;8.500;2023-06-10T07:03:29;32.95;37.13
9723;DHT22;4900;49.306;8.500;2023-06-10T07:05:55;33.06;36.39
9723;DHT22;4900;49.306;8.500;2023-06-10T07:08:20;32.98;35.69
9723;DHT22;4900;49.306;8.500;2023-06-10T07:10:46;32.95;35.58
9723;DHT22;4900;49.306;8.500;2023-06-10T07:13:11;33.12;35.02
9723;DHT22;4900;49.306;8.500;2023-06-10T07:15:38;32.98;34.69
9723;DHT22;4900;49.306;8.500;2023-06-10T07:18:03;33.31;34.83
9723;DHT22;4900;49.306;8.500;2023-06-10T07:20:29;33.13;34.39
9723;DHT22;4900;49.306;8.500;2023-06-10T07:22:54;33.09;34.34
9723;DHT22;4900;49.306;8.500;2023-06-10T07:25:20;33.39;34.05
9723;DHT22;4900;49.306;8.500;2023-06-10T07:27:45;33.67;34.03
9723;DHT22;4900;49.306;8.500;2023-06-10T07:30:11;33.80;34.27
9723;DHT22;4900;49.306;8.500;2023-06-10T07:32:37;33.50;33.67
9723;DHT22;4900;49.306;8.500;2023-06-10T07:35:02;33.88;33.19
9723;DHT22;4900;49.306;8.500;2023-06-10T07:37:28;34.31;32.49
9723;DHT22;4900;49.306;8.500;2023-06-10T07:39:53;34.26;32.21
9723;DHT22;4900;49.306;8.500;2023-06-10T07:42:19;34.44;31.94
9723;DHT22;4900;49.306;8.500;2023-06-10T07:44:44;34.23;31.98
9723;DHT22;4900;49.306;8.500;2023-06-10T07:47:10;34.77;31.79
9723;DHT22;4900;49.306;8.500;2023-06-10T07:49:35;34.99;31.26
9723;DHT22;4900;49.306;8.500;2023-06-10T07:52:00;35.15;31.16
9723;DHT22;4900;49.306;8.500;2023-06-10T07:54:26;34.95;30.97
9723;DHT22;4900;49.306;8.500;2023-06-10T07:56:52;35.73;30.67
9723;DHT22;4900;49.306;8.500;2023-06-10T07:59:18;35.77;30.61
9723;DHT22;4900;49.306;8.500;2023-06-10T08:01:43;35.74;30.28
9723;DHT22;4900;49.306;8.500;2023-06-10T08:04:09;35.72;30.19
9723;DHT22;4900;49.306;8.500;2023-06-10T08:06:34;35.81;30.14
9723;DHT22;4900;49.306;8.500;2023-06-10T08:09:02;36.11;29.79
9723;DHT22;4900;49.306;8.500;2023-06-10T08:11:27;36.18;29.45
9723;DHT22;4900;49.306;8.500;2023-06-10T08:13:54;36.32;29.47
9723;DHT22;4900;49.306;8.500;2023-06-10T08:16:20;36.55;29.20
9723;DHT22;4900;49.306;8.500;2023-06-10T08:18:45;36.66;28.88
9723;DHT22;4900;49.306;8.500;2023-06-10T08:21:10;36.62;28.58
9723;DHT22;4900;49.306;8.500;2023-06-10T08:23:36;37.20;30.41
9723;DHT22;4900;49.306;8.500;2023-06-10T08:26:01;37.48;29.95
9723;DHT22;4900;49.306;8.500;2023-06-10T08:28:27;37.63;30.05
9723;DHT22;4900;49.306;8.500;2023-06-10T08:30:52;37.89;29.37
9723;DHT22;4900;49.306;8.500;2023-06-10T08:33:18;37.51;28.30
9723;DHT22;4900;49.306;8.500;2023-06-10T08:35:43;38.08;29.30
9723;DHT22;4900;49.306;8.500;2023-06-10T08:38:08;37.76;28.64
9723;DHT22;4900;49.306;8.500;2023-06-10T08:40:34;38.03;29.37
9723;DHT22;4900;49.306;8.500;2023-06-10T08:45:29;38.42;27.92
9723;DHT22;4900;49.306;8.500;2023-06-10T08:47:57;38.41;27.96
9723;DHT22;4900;49.306;8.500;2023-06-10T08:50:23;38.55;27.89
9723;DHT22;4900;49.306;8.500;2023-06-10T08:52:50;38.62;28.40
9723;DHT22;4900;49.306;8.500;2023-06-10T08:55:23;38.76;27.25
9723;DHT22;4900;49.306;8.500;2023-06-10T08:57:51;38.93;27.38
9723;DHT22;4900;49.306;8.500;2023-06-10T09:00:18;38.87;26.76
9723;DHT22;4900;49.306;8.500;2023-06-10T09:02:44;39.07;26.48
9723;DHT22;4900;49.306;8.500;2023-06-10T09:05:10;39.17;26.78
9723;DHT22;4900;49.306;8.500;2023-06-10T09:07:36;39.16;26.40
9723;DHT22;4900;49.306;8.500;2023-06-10T09:10:03;39.61;26.72
9723;DHT22;4900;49.306;8.500;2023-06-10T09:12:31;39.55;25.85
9723;DHT22;4900;49.306;8.500;2023-06-10T09:14:57;39.79;26.35
9723;DHT22;4900;49.306;8.500;2023-06-10T09:17:23;39.73;25.78
9723;DHT22;4900;49.306;8.500;2023-06-10T09:19:48;39.44;25.92
9723;DHT22;4900;49.306;8.500;2023-06-10T09:22:14;40.14;25.80
9723;DHT22;4900;49.306;8.500;2023-06-10T09:24:40;39.84;25.31
9723;DHT22;4900;49.306;8.500;2023-06-10T09:27:07;40.10;25.54
9723;DHT22;4900;49.306;8.500;2023-06-10T09:29:53;39.59;25.23
9723;DHT22;4900;49.306;8.500;2023-06-10T09:32:19;39.96;25.45
9723;DHT22;4900;49.306;8.500;2023-06-10T09:34:45;39.96;25.23
9723;DHT22;4900;49.306;8.500;2023-06-10T09:37:11;40.26;25.15
9723;DHT22;4900;49.306;8.500;2023-06-10T09:39:37;40.75;25.48
9723;DHT22;4900;49.306;8.500;2023-06-10T09:42:18;41.34;25.35
9723;DHT22;4900;49.306;8.500;2023-06-10T09:44:53;41.38;24.70
9723;DHT22;4900;49.306;8.500;2023-06-10T09:47:22;41.40;24.56
9723;DHT22;4900;49.306;8.500;2023-06-10T09:49:50;41.55;24.27
9723;DHT22;4900;49.306;8.500;2023-06-10T09:52:22;41.57;23.63
9723;DHT22;4900;49.306;8.500;2023-06-10T09:54:50;41.22;23.68
9723;DHT22;4900;49.306;8.500;2023-06-10T09:57:16;41.33;23.89
9723;DHT22;4900;49.306;8.500;2023-06-10T09:59:42;41.93;23.92
9723;DHT22;4900;49.306;8.500;2023-06-10T10:02:16;42.39;23.16
9723;DHT22;4900;49.306;8.500;2023-06-10T10:04:42;42.60;23.06
9723;DHT22;4900;49.306;8.500;2023-06-10T10:07:09;42.62;22.95
9723;DHT22;4900;49.306;8.500;2023-06-10T10:09:38;43.27;23.29
9723;DHT22;4900;49.306;8.500;2023-06-10T10:12:09;43.71;23.17
9723;DHT22;4900;49.306;8.500;2023-06-10T10:14:36;43.81;22.83
9723;DHT22;4900;49.306;8.500;2023-06-10T10:17:04;44.28;22.30
9723;DHT22;4900;49.306;8.500;2023-06-10T10:19:32;44.53;22.23
9723;DHT22;4900;49.306;8.500;2023-06-10T10:22:07;44.44;22.65
9723;DHT22;4900;49.306;8.500;2023-06-10T10:24:38;44.50;22.25
9723;DHT22;4900;49.306;8.500;2023-06-10T10:27:09;44.40;21.35
9723;DHT22;4900;49.306;8.500;2023-06-10T10:29:39;44.12;21.67
9723;DHT22;4900;49.306;8.500;2023-06-10T10:32:06;43.67;22.91
9723;DHT22;4900;49.306;8.500;2023-06-10T10:35:08;43.80;22.72
9723;DHT22;4900;49.306;8.500;2023-06-10T10:37:35;43.16;24.51
9723;DHT22;4900;49.306;8.500;2023-06-10T10:40:01;42.94;23.28
9723;DHT22;4900;49.306;8.500;2023-06-10T10:42:28;42.90;24.22
9723;DHT22;4900;49.306;8.500;2023-06-10T10:44:55;42.92;24.24
9723;DHT22;4900;49.306;8.500;2023-06-10T10:47:22;42.72;23.78
9723;DHT22;4900;49.306;8.500;2023-06-10T10:49:51;43.13;24.30
9723;DHT22;4900;49.306;8.500;2023-06-10T10:52:17;43.50;23.12
9723;DHT22;4900;49.306;8.500;2023-06-10T10:54:44;43.23;23.46
9723;DHT22;4900;49.306;8.500;2023-06-10T10:57:14;43.46;22.72
9723;DHT22;4900;49.306;8.500;2023-06-10T10:59:57;43.74;21.81
9723;DHT22;4900;49.306;8.500;2023-06-10T11:02:45;43.10;24.09
9723;DHT22;4900;49.306;8.500;2023-06-10T11:05:16;43.89;22.48
9723;DHT22;4900;49.306;8.500;2023-06-10T11:08:02;44.29;22.61
9723;DHT22;4900;49.306;8.500;2023-06-10T11:10:32;44.19;21.27
9723;DHT22;4900;49.306;8.500;2023-06-10T11:12:58;43.01;21.56
9723;DHT22;4900;49.306;8.500;2023-06-10T11:15:26;42.22;21.48
9723;DHT22;4900;49.306;8.500;2023-06-10T11:18:23;42.25;21.24
9723;DHT22;4900;49.306;8.500;2023-06-10T11:25:50;43.43;21.23
9723;DHT22;4900;49.306;8.500;2023-06-10T11:28:19;43.64;20.71
9723;DHT22;4900;49.306;8.500;2023-06-10T11:30:46;44.36;20.17
9723;DHT22;4900;49.306;8.500;2023-06-10T11:33:22;44.57;19.69
9723;DHT22;4900;49.306;8.500;2023-06-10T11:35:48;43.85;20.43
9723;DHT22;4900;49.306;8.500;2023-06-10T11:38:15;43.94;21.23
9723;DHT22;4900;49.306;8.500;2023-06-10T11:40:48;43.10;22.46
9723;DHT22;4900;49.306;8.500;2023-06-10T11:43:17;43.57;23.26
9723;DHT22;4900;49.306;8.500;2023-06-10T11:45:42;44.13;22.60
9723;DHT22;4900;49.306;8.500;2023-06-10T11:48:09;44.68;21.31
9723;DHT22;4900;49.306;8.500;2023-06-10T11:50:34;45.09;21.04
9723;DHT22;4900;49.306;8.500;2023-06-10T11:53:00;44.41;22.37
9723;DHT22;4900;49.306;8.500;2023-06-10T11:55:46;44.23;20.94
9723;DHT22;4900;49.306;8.500;2023-06-10T11:58:20;44.47;21.38
9723;DHT22;4900;49.306;8.500;2023-06-10T12:00:54;43.95;21.74
9723;DHT22;4900;49.306;8.500;2023-06-10T12:03:21;43.98;21.56
9723;DHT22;4900;49.306;8.500;2023-06-10T12:06:03;44.11;21.49
9723;DHT22;4900;49.306;8.500;2023-06-10T12:08:29;44.60;21.40
9723;DHT22;4900;49.306;8.500;2023-06-10T12:10:56;44.94;21.52
9723;DHT22;4900;49.306;8.500;2023-06-10T12:13:22;44.84;20.17
9723;DHT22;4900;49.306;8.500;2023-06-10T12:15:49;44.71;20.47
9723;DHT22;4900;49.306;8.500;2023-06-10T12:18:19;44.44;20.48
9723;DHT22;4900;49.306;8.500;2023-06-10T12:20:44;43.94;21.10
9723;DHT22;4900;49.306;8.500;2023-06-10T12:23:10;43.49;21.52
9723;DHT22;4900;49.306;8.500;2023-06-10T12:25:39;43.98;21.92
9723;DHT22;4900;49.306;8.500;2023-06-10T12:28:14;44.26;21.53
9723;DHT22;4900;49.306;8.500;2023-06-10T12:30:41;43.87;21.70
9723;DHT22;4900;49.306;8.500;2023-06-10T12:33:16;42.37;22.65
9723;DHT22;4900;49.306;8.500;2023-06-10T12:35:50;41.89;22.63
9723;DHT22;4900;49.306;8.500;2023-06-10T12:38:25;41.44;23.53
9723;DHT22;4900;49.306;8.500;2023-06-10T12:41:01;40.82;24.11
9723;DHT22;4900;49.306;8.500;2023-06-10T12:43:26;40.34;24.49
9723;DHT22;4900;49.306;8.500;2023-06-10T12:45:52;39.82;25.31
9723;DHT22;4900;49.306;8.500;2023-06-10T12:48:23;39.34;25.65
9723;DHT22;4900;49.306;8.500;2023-06-10T12:50:54;39.09;25.58
9723;DHT22;4900;49.306;8.500;2023-06-10T12:53:21;38.31;25.35
9723;DHT22;4900;49.306;8.500;2023-06-10T12:55:47;37.43;24.08
9723;DHT22;4900;49.306;8.500;2023-06-10T12:58:13;37.29;23.94
9723;DHT22;4900;49.306;8.500;2023-06-10T13:00:39;37.48;23.57
9723;DHT22;4900;49.306;8.500;2023-06-10T13:03:05;37.82;22.79
9723;DHT22;4900;49.306;8.500;2023-06-10T13:05:32;38.49;22.82
9723;DHT22;4900;49.306;8.500;2023-06-10T13:07:58;39.42;22.32
9723;DHT22;4900;49.306;8.500;2023-06-10T13:10:24;40.51;21.80
9723;DHT22;4900;49.306;8.500;2023-06-10T13:12:51;40.93;21.08
9723;DHT22;4900;49.306;8.500;2023-06-10T13:15:16;41.99;20.77
9723;DHT22;4900;49.306;8.500;2023-06-10T13:17:45;42.48;21.19
9723;DHT22;4900;49.306;8.500;2023-06-10T13:20:15;42.85;20.59
9723;DHT22;4900;49.306;8.500;2023-06-10T13:22:41;43.40;19.69
9723;DHT22;4900;49.306;8.500;2023-06-10T13:25:07;44.18;19.20
9723;DHT22;4900;49.306;8.500;2023-06-10T13:27:33;44.35;19.23
9723;DHT22;4900;49.306;8.500;2023-06-10T13:29:59;44.66;18.74
9723;DHT22;4900;49.306;8.500;2023-06-10T13:32:25;44.68;18.46
9723;DHT22;4900;49.306;8.500;2023-06-10T13:34:50;44.01;19.03
9723;DHT22;4900;49.306;8.500;2023-06-10T13:37:16;42.76;19.85
9723;DHT22;4900;49.306;8.500;2023-06-10T13:39:45;42.05;19.80
9723;DHT22;4900;49.306;8.500;2023-06-10T13:42:14;41.43;20.27
9723;DHT22;4900;49.306;8.500;2023-06-10T13:44:40;41.14;20.62
9723;DHT22;4900;49.306;8.500;2023-06-10T13:47:06;41.16;20.82
9723;DHT22;4900;49.306;8.500;2023-06-10T13:49:32;41.29;20.59
9723;DHT22;4900;49.306;8.500;2023-06-10T13:51:57;42.06;20.70
9723;DHT22;4900;49.306;8.500;2023-06-10T13:54:23;42.45;19.70
9723;DHT22;4900;49.306;8.500;2023-06-10T13:56:48;43.07;19.31
9723;DHT22;4900;49.306;8.500;2023-06-10T13:59:14;43.53;19.18
9723;DHT22;4900;49.306;8.500;2023-06-10T14:01:39;43.56;19.03
9723;DHT22;4900;49.306;8.500;2023-06-10T14:04:06;44.15;18.53
9723;DHT22;4900;49.306;8.500;2023-06-10T14:06:32;43.89;18.79
9723;DHT22;4900;49.306;8.500;2023-06-10T14:09:00;44.19;18.48
9723;DHT22;4900;49.306;8.500;2023-06-10T14:11:25;44.73;18.48
9723;DHT22;4900;49.306;8.500;2023-06-10T14:13:51;44.64;18.19
9723;DHT22;4900;49.306;8.500;2023-06-10T14:16:17;45.01;18.27
9723;DHT22;4900;49.306;8.500;2023-06-10T14:18:42;44.98;17.93
9723;DHT22;4900;49.306;8.500;2023-06-10T14:21:07;45.56;18.22
9723;DHT22;4900;49.306;8.500;2023-06-10T14:23:33;45.35;17.55
9723;DHT22;4900;49.306;8.500;2023-06-10T14:25:59;45.45;17.82
9723;DHT22;4900;49.306;8.500;2023-06-10T14:28:24;45.46;17.48
9723;DHT22;4900;49.306;8.500;2023-06-10T14:30:51;46.11;18.05
9723;DHT22;4900;49.306;8.500;2023-06-10T14:33:17;46.32;17.93
9723;DHT22;4900;49.306;8.500;2023-06-10T14:35:43;46.68;17.99
9723;DHT22;4900;49.306;8.500;2023-06-10T14:38:09;46.55;18.11
9723;DHT22;4900;49.306;8.500;2023-06-10T14:40:35;46.03;17.59
9723;DHT22;4900;49.306;8.500;2023-06-10T14:43:00;46.59;17.91
9723;DHT22;4900;49.306;8.500;2023-06-10T14:45:29;46.24;17.47
9723;DHT22;4900;49.306;8.500;2023-06-10T14:47:55;45.73;17.79
9723;DHT22;4900;49.306;8.500;2023-06-10T14:50:20;45.96;17.19
9723;DHT22;4900;49.306;8.500;2023-06-10T14:52:46;45.28;17.16
9723;DHT22;4900;49.306;8.500;2023-06-10T14:55:11;45.98;17.00
9723;DHT22;4900;49.306;8.500;2023-06-10T14:57:37;46.79;16.86
9723;DHT22;4900;49.306;8.500;2023-06-10T15:00:03;47.14;16.49
9723;DHT22;4900;49.306;8.500;2023-06-10T15:02:28;47.61;16.66
9723;DHT22;4900;49.306;8.500;2023-06-10T15:04:54;47.97;16.66
9723;DHT22;4900;49.306;8.500;2023-06-10T15:07:19;48.33;16.96
9723;DHT22;4900;49.306;8.500;2023-06-10T15:09:45;48.70;17.01
9723;DHT22;4900;49.306;8.500;2023-06-10T15:12:10;48.88;16.48
9723;DHT22;4900;49.306;8.500;2023-06-10T15:14:36;49.16;16.28
9723;DHT22;4900;49.306;8.500;2023-06-10T15:17:01;49.37;16.10
9723;DHT22;4900;49.306;8.500;2023-06-10T15:19:27;49.44;16.34
9723;DHT22;4900;49.306;8.500;2023-06-10T15:21:53;49.58;16.44
9723;DHT22;4900;49.306;8.500;2023-06-10T15:24:18;49.77;16.11
9723;DHT22;4900;49.306;8.500;2023-06-10T15:26:44;49.86;16.08
9723;DHT22;4900;49.306;8.500;2023-06-10T15:29:11;49.81;16.28
9723;DHT22;4900;49.306;8.500;2023-06-10T15:31:36;49.89;16.13
9723;DHT22;4900;49.306;8.500;2023-06-10T15:34:02;49.50;16.23
9723;DHT22;4900;49.306;8.500;2023-06-10T15:36:28;49.41;15.86
9723;DHT22;4900;49.306;8.500;2023-06-10T15:38:54;49.19;16.03
9723;DHT22;4900;49.306;8.500;2023-06-10T15:41:19;48.99;16.52
9723;DHT22;4900;49.306;8.500;2023-06-10T15:43:45;48.95;16.92
9723;DHT22;4900;49.306;8.500;2023-06-10T15:46:11;48.70;17.06
9723;DHT22;4900;49.306;8.500;2023-06-10T15:48:37;48.82;16.84
9723;DHT22;4900;49.306;8.500;2023-06-10T15:51:02;48.85;16.95
9723;DHT22;4900;49.306;8.500;2023-06-10T15:53:28;48.92;17.20
9723;DHT22;4900;49.306;8.500;2023-06-10T15:55:53;48.88;17.15
9723;DHT22;4900;49.306;8.500;2023-06-10T15:58:19;48.91;17.12
9723;DHT22;4900;49.306;8.500;2023-06-10T16:00:44;48.76;16.45
9723;DHT22;4900;49.306;8.500;2023-06-10T16:03:09;48.68;16.37
9723;DHT22;4900;49.306;8.500;2023-06-10T16:05:35;48.55;16.46
9723;DHT22;4900;49.306;8.500;2023-06-10T16:08:00;48.44;16.44
9723;DHT22;4900;49.306;8.500;2023-06-10T16:10:26;48.34;16.32
9723;DHT22;4900;49.306;8.500;2023-06-10T16:12:51;48.27;16.69
9723;DHT22;4900;49.306;8.500;2023-06-10T16:15:17;48.21;16.92